createdAt,value
2022-08-03T00:01:29.252Z,25.11
2022-08-03T00:03:56.358Z,25.23
2022-08-03T00:06:23.101Z,25.46
2022-08-03T00:08:49.784Z,25.47
2022-08-03T00:11:16.538Z,25.30
2022-08-03T00:13:44.092Z,25.05
2022-08-03T00:16:11.640Z,25.39
2022-08-03T00:18:38.444Z,25.49
2022-08-03T00:21:05.805Z,25.50
2022-08-03T00:23:51.888Z,25.55
2022-08-03T00:26:25.152Z,25.55
2022-08-03T00:28:51.897Z,25.42
2022-08-03T00:31:23.134Z,25.49
2022-08-03T00:34:06.000Z,25.00
2022-08-03T00:36:33.651Z,25.08
2022-08-03T00:39:00.443Z,24.42
2022-08-03T00:41:27.198Z,24.62
2022-08-03T00:43:53.989Z,24.51
2022-08-03T00:46:22.342Z,24.91
2022-08-03T00:48:51.079Z,25.03
2022-08-03T00:51:20.052Z,25.12
2022-08-03T00:53:46.894Z,25.15
2022-08-03T00:56:17.985Z,25.28
2022-08-03T00:58:46.566Z,25.22
2022-08-03T01:01:14.646Z,25.24
2022-08-03T01:03:41.980Z,25.34
2022-08-03T01:06:23.099Z,25.28
2022-08-03T01:09:09.085Z,25.08
2022-08-03T01:12:12.019Z,25.10
2022-08-03T01:14:44.693Z,25.14
2022-08-03T01:17:27.911Z,24.94
2022-08-03T01:20:07.514Z,25.25
2022-08-03T01:23:08.865Z,25.23
2022-08-03T01:25:59.648Z,25.07
2022-08-03T01:28:38.948Z,24.95
2022-08-03T01:31:10.309Z,25.02
2022-08-03T01:33:46.957Z,24.98
2022-08-03T01:36:18.007Z,25.08
2022-08-03T01:38:55.317Z,25.08
2022-08-03T01:41:27.766Z,25.14
2022-08-03T01:44:26.863Z,24.39
2022-08-03T01:46:47.564Z,24.99
2022-08-03T01:49:16.922Z,25.09
2022-08-03T01:51:56.607Z,25.17
2022-08-03T01:54:36.316Z,25.29
2022-08-03T01:57:04.179Z,25.35
2022-08-03T01:59:35.145Z,25.31
2022-08-03T02:02:28.907Z,25.26
2022-08-03T02:04:52.279Z,25.36
2022-08-03T02:07:20.196Z,25.07
2022-08-03T02:09:54.130Z,25.23
2022-08-03T02:12:25.078Z,25.43
2022-08-03T02:14:52.747Z,25.49
2022-08-03T02:17:39.349Z,25.50
2022-08-03T02:20:10.887Z,25.53
2022-08-03T02:22:41.238Z,25.59
2022-08-03T02:25:11.286Z,25.60
2022-08-03T02:27:44.080Z,25.71
2022-08-03T02:30:12.489Z,25.64
2022-08-03T02:32:42.979Z,25.49
2022-08-03T02:35:17.083Z,25.56
2022-08-03T02:38:03.101Z,25.64
2022-08-03T02:40:32.160Z,25.55
2022-08-03T02:43:05.337Z,25.59
2022-08-03T02:45:36.069Z,25.51
2022-08-03T02:48:05.637Z,25.29
2022-08-03T02:50:35.090Z,25.29
2022-08-03T02:53:03.402Z,25.03
2022-08-03T02:55:32.787Z,25.21
2022-08-03T02:58:01.505Z,25.23
2022-08-03T03:00:31.315Z,25.19
2022-08-03T03:03:00.653Z,24.91
2022-08-03T03:05:52.367Z,24.83
2022-08-03T03:08:25.791Z,24.16
2022-08-03T03:10:55.966Z,24.46
2022-08-03T03:13:23.767Z,24.56
2022-08-03T03:15:52.083Z,24.25
2022-08-03T03:18:22.881Z,24.57
2022-08-03T03:20:54.439Z,24.61
2022-08-03T03:23:26.830Z,24.63
2022-08-03T03:25:55.971Z,24.59
2022-08-03T03:28:25.927Z,24.64
2022-08-03T03:30:53.436Z,24.61
2022-08-03T03:33:22.438Z,24.62
2022-08-03T03:35:50.423Z,24.59
2022-08-03T03:38:17.850Z,24.53
2022-08-03T03:40:44.726Z,24.46
2022-08-03T03:43:13.071Z,24.58
2022-08-03T03:45:43.515Z,24.48
2022-08-03T03:48:10.735Z,24.46
2022-08-03T03:50:40.915Z,24.34
2022-08-03T03:53:11.269Z,24.40
2022-08-03T03:55:59.793Z,24.36
2022-08-03T03:58:25.983Z,24.53
2022-08-03T04:00:53.865Z,24.54
2022-08-03T04:03:20.817Z,24.57
2022-08-03T04:06:05.864Z,24.42
2022-08-03T04:08:51.119Z,24.58
2022-08-03T04:11:29.308Z,24.53
2022-08-03T04:14:20.240Z,24.59
2022-08-03T04:16:52.032Z,24.65
2022-08-03T04:19:29.473Z,24.74
2022-08-03T04:22:01.687Z,24.77
2022-08-03T04:24:39.439Z,24.85
2022-08-03T04:27:09.564Z,24.88
2022-08-03T04:29:46.395Z,24.95
2022-08-03T04:32:17.089Z,25.01
2022-08-03T04:34:44.410Z,25.04
2022-08-03T04:37:44.109Z,25.09
2022-08-03T04:40:22.832Z,25.21
2022-08-03T04:42:50.393Z,25.31
2022-08-03T04:45:19.331Z,25.40
2022-08-03T04:47:46.805Z,25.52
2022-08-03T04:50:17.049Z,25.45
2022-08-03T04:52:48.317Z,25.51
2022-08-03T04:55:34.567Z,25.66
2022-08-03T04:58:03.076Z,25.84
2022-08-03T05:00:30.115Z,25.89
2022-08-03T05:02:56.950Z,25.95
2022-08-03T05:05:24.145Z,26.09
2022-08-03T05:07:51.281Z,26.15
2022-08-03T05:10:18.590Z,26.33
2022-08-03T05:12:48.113Z,26.44
2022-08-03T05:15:15.831Z,26.58
2022-08-03T05:17:42.882Z,26.59
2022-08-03T05:20:11.202Z,26.65
2022-08-03T05:22:37.895Z,26.23
2022-08-03T05:25:05.236Z,26.36
2022-08-03T05:27:31.972Z,26.28
2022-08-03T05:30:27.347Z,26.17
2022-08-03T05:32:45.758Z,26.35
2022-08-03T05:35:56.793Z,26.69
2022-08-03T05:37:59.172Z,26.66
2022-08-03T05:40:25.873Z,26.79
2022-08-03T05:42:53.760Z,26.53
2022-08-03T05:45:24.229Z,26.76
2022-08-03T05:48:11.899Z,26.74
2022-08-03T05:50:42.709Z,26.81
2022-08-03T05:53:09.837Z,26.79
2022-08-03T05:55:36.957Z,26.91
2022-08-03T05:58:09.118Z,26.75
2022-08-03T06:00:41.228Z,26.54
2022-08-03T06:03:07.980Z,26.49
2022-08-03T06:05:36.567Z,26.47
2022-08-03T06:08:10.186Z,27.34
2022-08-03T06:10:42.299Z,27.55
2022-08-03T06:13:09.073Z,28.02
2022-08-03T06:15:36.432Z,27.95
2022-08-03T06:18:03.403Z,28.17
2022-08-03T06:20:30.344Z,28.20
2022-08-03T06:23:00.399Z,28.62
2022-08-03T06:25:28.142Z,28.37
2022-08-03T06:27:54.819Z,28.19
2022-08-03T06:30:21.726Z,28.44
2022-08-03T06:32:51.922Z,28.32
2022-08-03T06:35:19.963Z,28.93
2022-08-03T06:37:49.509Z,28.93
2022-08-03T06:40:31.585Z,29.19
2022-08-03T06:43:00.225Z,29.06
2022-08-03T06:45:31.825Z,29.60
2022-08-03T06:48:11.871Z,29.83
2022-08-03T06:50:41.480Z,29.46
2022-08-03T06:53:10.266Z,29.88
2022-08-03T06:55:44.988Z,30.04
2022-08-03T06:58:11.702Z,30.35
2022-08-03T07:00:38.497Z,30.63
2022-08-03T07:03:05.233Z,30.20
2022-08-03T07:05:34.991Z,29.50
2022-08-03T07:08:03.190Z,30.29
2022-08-03T07:10:29.911Z,29.67
2022-08-03T07:12:57.039Z,30.12
2022-08-03T07:15:55.304Z,30.48
2022-08-03T07:18:11.302Z,31.10
2022-08-03T07:20:38.098Z,31.29
2022-08-03T07:23:04.851Z,30.68
2022-08-03T07:25:31.547Z,30.79
2022-08-03T07:27:58.279Z,31.17
2022-08-03T07:30:25.091Z,31.21
2022-08-03T07:32:51.936Z,30.56
2022-08-03T07:35:24.505Z,31.34
2022-08-03T07:37:54.693Z,32.15
2022-08-03T07:40:22.814Z,31.95
2022-08-03T07:42:52.198Z,32.17
2022-08-03T07:45:23.367Z,32.28
2022-08-03T07:47:53.598Z,32.01
2022-08-03T07:50:21.462Z,31.64
2022-08-03T07:52:48.623Z,31.95
2022-08-03T07:55:17.152Z,31.86
2022-08-03T07:57:44.258Z,31.84
2022-08-03T08:00:20.481Z,31.57
2022-08-03T08:02:47.200Z,31.69
2022-08-03T08:05:14.100Z,31.76
2022-08-03T08:07:41.206Z,31.97
2022-08-03T08:10:10.319Z,32.65
2022-08-03T08:12:39.217Z,32.28
2022-08-03T08:15:07.517Z,30.81
2022-08-03T08:17:49.545Z,29.94
2022-08-03T08:20:27.980Z,30.34
2022-08-03T08:23:06.911Z,31.03
2022-08-03T08:25:52.790Z,31.41
2022-08-03T08:28:30.931Z,30.59
2022-08-03T08:31:00.070Z,30.42
2022-08-03T08:33:37.353Z,30.00
2022-08-03T08:36:15.617Z,30.73
2022-08-03T08:38:44.620Z,30.97
2022-08-03T08:41:13.937Z,30.97
2022-08-03T08:43:42.247Z,30.15
2022-08-03T08:46:13.075Z,31.05
2022-08-03T08:48:51.896Z,31.02
2022-08-03T08:51:50.627Z,30.34
2022-08-03T08:54:15.570Z,30.43
2022-08-03T08:56:43.285Z,31.28
2022-08-03T08:59:10.149Z,30.79
2022-08-03T09:01:36.894Z,31.00
2022-08-03T09:04:07.359Z,30.65
2022-08-03T09:06:34.160Z,30.73
2022-08-03T09:09:01.293Z,30.30
2022-08-03T09:12:01.083Z,30.77
2022-08-03T09:14:39.274Z,31.15
2022-08-03T09:17:04.507Z,30.90
2022-08-03T09:19:34.200Z,30.45
2022-08-03T09:22:16.635Z,30.42
2022-08-03T09:25:23.269Z,30.35
2022-08-03T09:27:48.358Z,30.27
2022-08-03T09:30:33.886Z,30.48
2022-08-03T09:33:04.763Z,30.97
2022-08-03T09:38:24.129Z,30.37
2022-08-03T09:40:53.824Z,31.26
2022-08-03T09:43:25.972Z,31.14
2022-08-03T09:46:04.415Z,31.76
2022-08-03T09:48:35.156Z,31.50
2022-08-03T09:51:13.239Z,30.73
2022-08-03T09:53:59.121Z,31.00
2022-08-03T09:56:47.334Z,30.02
2022-08-03T09:59:28.778Z,30.62
2022-08-03T10:01:58.321Z,30.78
2022-08-03T10:04:25.858Z,30.85
2022-08-03T10:07:23.983Z,31.26
2022-08-03T10:10:28.537Z,32.80
2022-08-03T10:12:49.428Z,31.71
2022-08-03T10:16:21.275Z,31.36
2022-08-03T10:18:02.909Z,31.09
2022-08-03T10:20:29.757Z,31.27
2022-08-03T10:22:57.706Z,31.98
2022-08-03T10:25:33.239Z,32.32
2022-08-03T10:28:04.482Z,32.32
2022-08-03T10:30:33.084Z,32.55
2022-08-03T10:33:49.988Z,32.11
2022-08-03T10:35:59.448Z,33.19
2022-08-03T10:38:52.986Z,32.52
2022-08-03T10:41:31.302Z,32.71
2022-08-03T10:44:15.586Z,31.95
2022-08-03T10:46:45.161Z,32.04
2022-08-03T10:49:33.537Z,32.14
2022-08-03T10:52:13.339Z,31.41
2022-08-03T10:55:10.669Z,31.42
2022-08-03T10:57:50.080Z,31.29
2022-08-03T11:00:25.061Z,32.39
2022-08-03T11:03:14.561Z,32.39
2022-08-03T11:05:48.149Z,34.17
2022-08-03T11:08:24.488Z,33.38
2022-08-03T11:11:00.598Z,32.09
2022-08-03T11:13:31.914Z,32.20
2022-08-03T11:16:04.778Z,32.23
2022-08-03T11:18:33.457Z,31.59
2022-08-03T11:21:01.065Z,31.94
2022-08-03T11:24:04.858Z,31.87
2022-08-03T11:26:32.907Z,31.50
2022-08-03T11:29:32.010Z,31.67
2022-08-03T11:31:59.130Z,31.92
2022-08-03T11:34:26.466Z,32.27
2022-08-03T11:37:27.574Z,32.22
2022-08-03T11:39:58.177Z,31.77
2022-08-03T11:42:25.501Z,31.81
2022-08-03T11:44:57.785Z,32.22
2022-08-03T11:47:27.337Z,33.12
2022-08-03T11:50:03.099Z,34.09
2022-08-03T11:52:39.934Z,33.53
2022-08-03T11:55:12.849Z,33.05
2022-08-03T11:59:18.753Z,32.85
2022-08-03T12:00:32.520Z,32.83
2022-08-03T12:03:06.781Z,33.45
2022-08-03T12:05:54.800Z,33.37
2022-08-03T12:08:27.647Z,33.39
2022-08-03T12:10:57.108Z,33.25
2022-08-03T12:14:44.395Z,32.81
2022-08-03T12:16:22.440Z,32.60
2022-08-03T12:18:59.880Z,32.94
2022-08-03T12:21:27.253Z,32.08
2022-08-03T12:24:04.246Z,32.39
2022-08-03T12:26:58.195Z,33.20
2022-08-03T12:29:27.229Z,33.23
2022-08-03T12:31:54.045Z,32.97
2022-08-03T12:34:20.876Z,32.61
2022-08-03T12:36:59.447Z,32.98
2022-08-03T12:39:30.970Z,33.02
2022-08-03T12:41:58.190Z,33.59
2022-08-03T12:44:36.093Z,34.53
2022-08-03T12:47:06.672Z,35.22
2022-08-03T12:49:50.673Z,33.96
2022-08-03T12:52:19.276Z,34.73
2022-08-03T12:55:00.391Z,34.11
2022-08-03T12:57:42.254Z,35.63
2022-08-03T13:00:28.767Z,35.02
2022-08-03T13:03:39.747Z,33.48
2022-08-03T13:05:57.364Z,33.59
2022-08-03T13:08:25.678Z,35.05
2022-08-03T13:10:52.745Z,34.85
2022-08-03T13:13:37.525Z,33.08
2022-08-03T13:16:04.649Z,33.08
2022-08-03T13:18:31.396Z,32.91
2022-08-03T13:21:00.318Z,32.70
2022-08-03T13:23:27.136Z,33.98
2022-08-03T13:25:55.681Z,34.78
2022-08-03T13:28:23.230Z,35.31
2022-08-03T13:30:50.151Z,35.79
2022-08-03T13:33:17.630Z,35.25
2022-08-03T13:35:44.599Z,33.17
2022-08-03T13:38:11.368Z,34.80
2022-08-03T13:40:38.479Z,34.37
2022-08-03T13:43:09.461Z,35.15
2022-08-03T13:45:36.454Z,34.63
2022-08-03T13:48:03.287Z,35.95
2022-08-03T13:50:31.391Z,35.39
2022-08-03T13:52:58.160Z,35.57
2022-08-03T13:55:24.939Z,35.84
2022-08-03T13:58:11.637Z,36.24
2022-08-03T14:00:39.668Z,37.30
2022-08-03T14:03:13.813Z,36.28
2022-08-03T14:05:43.246Z,37.65
2022-08-03T14:08:11.265Z,37.60
2022-08-03T14:10:43.892Z,39.42
2022-08-03T14:13:12.991Z,39.15
2022-08-03T14:15:50.171Z,37.16
2022-08-03T14:18:27.779Z,36.19
2022-08-03T14:21:03.382Z,37.38
2022-08-03T14:23:33.323Z,38.53
2022-08-03T14:26:00.150Z,39.09
2022-08-03T14:28:26.892Z,38.75
2022-08-03T14:30:56.015Z,38.16
2022-08-03T14:33:24.044Z,38.97
2022-08-03T14:35:52.074Z,38.66
2022-08-03T14:38:20.132Z,39.26
2022-08-03T14:40:47.613Z,39.85
2022-08-03T14:43:15.348Z,40.51
2022-08-03T14:45:42.687Z,41.04
2022-08-03T14:50:29.742Z,42.78
2022-08-03T14:50:56.769Z,42.45
2022-08-03T14:53:23.884Z,43.52
2022-08-03T14:55:51.992Z,39.48
2022-08-03T14:58:25.242Z,38.40
2022-08-03T15:00:54.272Z,39.16
2022-08-03T15:03:25.671Z,37.99
2022-08-03T15:05:55.825Z,40.08
2022-08-03T15:08:25.007Z,42.01
2022-08-03T15:10:53.092Z,43.19
2022-08-03T15:13:20.893Z,43.30
2022-08-03T15:15:48.015Z,41.59
2022-08-03T15:18:15.053Z,40.74
2022-08-03T15:20:46.315Z,43.28
2022-08-03T15:23:15.488Z,44.24
2022-08-03T15:26:03.829Z,45.61
2022-08-03T15:28:31.781Z,45.25
2022-08-03T15:30:58.667Z,46.29
2022-08-03T15:33:25.458Z,47.66
2022-08-03T15:35:53.087Z,47.89
2022-08-03T15:38:22.855Z,48.74
2022-08-03T15:40:55.942Z,49.21
2022-08-03T15:43:23.665Z,48.07
2022-08-03T15:46:12.809Z,48.44
2022-08-03T15:48:37.703Z,47.90
2022-08-03T15:51:05.596Z,45.84
2022-08-03T15:53:33.634Z,46.94
2022-08-03T15:56:04.235Z,47.25
2022-08-03T15:59:04.117Z,47.54
2022-08-03T16:01:21.501Z,44.28
2022-08-03T16:03:48.323Z,43.74
2022-08-03T16:06:15.142Z,44.65
2022-08-03T16:08:42.714Z,45.49
2022-08-03T16:11:09.676Z,44.75
2022-08-03T16:14:13.120Z,45.34
2022-08-03T16:16:23.404Z,45.91
2022-08-03T16:18:50.234Z,42.11
2022-08-03T16:21:19.443Z,43.19
2022-08-03T16:23:47.214Z,45.27
2022-08-03T16:26:14.472Z,45.20
2022-08-03T16:28:41.468Z,45.53
2022-08-03T16:31:09.206Z,46.73
2022-08-03T16:33:36.463Z,46.83
2022-08-03T16:36:03.638Z,47.78
2022-08-03T16:38:30.588Z,48.57
2022-08-03T16:40:57.452Z,48.34
2022-08-03T16:43:24.752Z,44.69
2022-08-03T16:45:52.137Z,43.89
2022-08-03T16:48:19.368Z,43.93
2022-08-03T16:50:46.204Z,42.24
2022-08-03T16:53:16.405Z,41.35
2022-08-03T16:55:53.449Z,41.50
2022-08-03T16:58:41.566Z,43.15
2022-08-03T17:01:21.988Z,44.47
2022-08-03T17:04:02.534Z,46.14
2022-08-03T17:06:36.448Z,47.45
2022-08-03T17:09:18.173Z,47.41
2022-08-03T17:11:47.892Z,47.71
2022-08-03T17:14:21.873Z,49.31
2022-08-03T17:16:54.279Z,48.94
2022-08-03T17:19:24.082Z,49.65
2022-08-03T17:22:04.780Z,49.49
2022-08-03T17:24:41.093Z,49.44
2022-08-03T17:28:42.346Z,49.44
2022-08-03T17:30:11.967Z,49.36
2022-08-03T17:32:52.606Z,48.29
2022-08-03T17:35:23.925Z,48.54
2022-08-03T17:37:58.388Z,48.53
2022-08-03T17:40:31.437Z,47.63
2022-08-03T17:43:00.733Z,46.55
2022-08-03T17:45:52.060Z,44.80
2022-08-03T17:48:18.373Z,44.09
2022-08-03T17:51:00.058Z,43.61
2022-08-03T17:53:36.761Z,42.79
2022-08-03T17:56:44.595Z,41.95
2022-08-03T17:59:50.971Z,41.66
2022-08-03T18:02:50.342Z,41.14
2022-08-03T18:05:21.658Z,40.49
2022-08-03T18:08:01.668Z,40.16
2022-08-03T18:10:35.793Z,39.68
2022-08-03T18:13:20.993Z,39.18
2022-08-03T18:16:00.002Z,38.66
2022-08-03T18:18:45.077Z,38.35
2022-08-03T18:21:17.062Z,38.24
2022-08-03T18:23:45.973Z,38.28
2022-08-03T18:26:17.285Z,37.94
2022-08-03T18:28:44.330Z,37.73
2022-08-03T18:31:59.882Z,37.52
2022-08-03T18:34:16.179Z,37.32
2022-08-03T18:36:54.855Z,36.97
2022-08-03T18:39:23.329Z,36.83
2022-08-03T18:41:51.495Z,36.58
2022-08-03T18:44:37.410Z,36.39
2022-08-03T18:48:18.741Z,36.31
2022-08-03T18:50:58.047Z,36.11
2022-08-03T18:54:03.149Z,35.85
2022-08-03T18:56:57.185Z,35.48
2022-08-03T18:59:51.468Z,35.46
2022-08-03T19:02:56.153Z,35.21
2022-08-03T19:05:56.434Z,35.01
2022-08-03T19:08:26.142Z,34.84
2022-08-03T19:11:00.798Z,34.61
2022-08-03T19:13:53.539Z,34.67
2022-08-03T19:16:39.442Z,34.38
2022-08-03T19:19:14.538Z,34.21
2022-08-03T19:21:41.995Z,33.83
2022-08-03T19:24:10.205Z,33.88
2022-08-03T19:26:39.684Z,33.91
2022-08-03T19:29:14.868Z,33.80
2022-08-03T19:31:49.262Z,33.61
2022-08-03T19:34:28.363Z,33.40
2022-08-03T19:37:00.795Z,33.40
2022-08-03T19:39:29.131Z,33.41
2022-08-03T19:42:12.127Z,33.46
2022-08-03T19:44:53.647Z,33.59
2022-08-03T19:47:31.998Z,33.41
2022-08-03T19:50:06.067Z,33.51
2022-08-03T19:52:43.731Z,33.53
2022-08-03T19:55:12.385Z,33.45
2022-08-03T19:57:43.543Z,33.43
2022-08-03T20:00:14.214Z,33.38
2022-08-03T20:02:42.069Z,33.33
2022-08-03T20:05:14.923Z,33.24
2022-08-03T20:07:47.699Z,33.14
2022-08-03T20:10:17.655Z,33.05
2022-08-03T20:12:46.220Z,33.00
2022-08-03T20:15:13.131Z,32.84
2022-08-03T20:17:56.567Z,32.58
2022-08-03T20:20:34.708Z,32.27
2022-08-03T20:23:11.253Z,32.21
2022-08-03T20:25:57.464Z,32.10
2022-08-03T20:28:50.262Z,31.46
2022-08-03T20:31:21.655Z,31.58
2022-08-03T20:33:50.777Z,31.30
2022-08-03T20:36:18.820Z,31.77
2022-08-03T20:38:48.184Z,31.79
2022-08-03T20:41:17.029Z,31.98
2022-08-03T20:43:44.951Z,32.07
2022-08-03T20:46:31.782Z,32.06
2022-08-03T20:49:03.983Z,31.99
2022-08-03T20:51:50.317Z,31.93
2022-08-03T20:54:31.273Z,31.99
2022-08-03T20:59:51.457Z,31.34
2022-08-03T21:02:30.018Z,31.56
2022-08-03T21:05:03.248Z,31.43
2022-08-03T21:08:03.779Z,31.24
2022-08-03T21:10:31.175Z,31.16
2022-08-03T21:13:12.721Z,31.87
2022-08-03T21:13:23.357Z,30.79
2022-08-03T21:16:06.493Z,31.07
2022-08-03T21:18:49.670Z,31.17
2022-08-03T21:21:20.840Z,31.14
2022-08-03T21:23:53.915Z,31.15
2022-08-03T21:26:24.343Z,31.19
2022-08-03T21:28:54.896Z,31.14
2022-08-03T21:31:24.635Z,31.13
2022-08-03T21:34:05.831Z,31.09
2022-08-03T21:36:37.695Z,30.96
2022-08-03T21:39:08.522Z,30.82
2022-08-03T21:41:37.872Z,30.53
2022-08-03T21:44:05.979Z,30.75
2022-08-03T21:46:39.825Z,30.49
2022-08-03T21:50:05.267Z,30.35
2022-08-03T21:51:59.566Z,30.29
2022-08-03T21:54:40.870Z,30.42
2022-08-03T21:57:24.494Z,30.30
2022-08-03T21:59:57.287Z,28.87
2022-08-03T22:02:32.038Z,27.48
2022-08-03T22:04:59.032Z,25.20
2022-08-03T22:07:28.935Z,26.70
2022-08-03T22:09:57.286Z,25.84
2022-08-03T22:12:27.257Z,26.13
2022-08-03T22:15:00.418Z,27.37
2022-08-03T22:17:53.701Z,28.21
2022-08-03T22:20:19.378Z,28.97
2022-08-03T22:22:50.169Z,28.85
2022-08-03T22:25:28.646Z,29.22
2022-08-03T22:27:56.272Z,28.57
2022-08-03T22:30:23.113Z,27.61
2022-08-03T22:32:51.978Z,28.13
2022-08-03T22:35:21.511Z,28.00
2022-08-03T22:37:54.937Z,28.50
2022-08-03T22:40:22.004Z,29.01
2022-08-03T22:42:50.593Z,28.95
2022-08-03T22:46:07.648Z,28.91
2022-08-03T22:48:08.530Z,28.86
2022-08-03T22:50:35.607Z,28.96
2022-08-03T22:53:02.915Z,29.06
2022-08-03T22:55:30.058Z,28.53
2022-08-03T22:57:56.861Z,28.69
2022-08-03T23:00:24.409Z,28.69
2022-08-03T23:02:54.041Z,28.90
2022-08-03T23:06:00.772Z,29.05
2022-08-03T23:08:16.731Z,29.02
2022-08-03T23:10:47.248Z,28.97
2022-08-03T23:13:17.509Z,28.85
2022-08-03T23:15:57.557Z,28.79
2022-08-03T23:18:28.767Z,28.17
2022-08-03T23:21:00.747Z,28.57
2022-08-03T23:23:44.643Z,28.67
2022-08-03T23:26:14.855Z,28.79
2022-08-03T23:28:46.691Z,28.55
2022-08-03T23:31:15.649Z,28.65
2022-08-03T23:33:44.970Z,28.67
2022-08-03T23:36:30.686Z,28.69
2022-08-03T23:39:02.823Z,28.62
2022-08-03T23:41:31.919Z,28.68
2022-08-03T23:44:01.182Z,28.69
2022-08-03T23:46:30.329Z,28.67
2022-08-03T23:49:00.424Z,28.60
2022-08-03T23:51:35.565Z,28.55
2022-08-03T23:54:33.567Z,28.48
2022-08-03T23:57:28.997Z,28.31
